sensor_id;sensor_type;location;lat;lon;timestamp;temperature;humidity
44271;DHT22;29963;44.594;11.368;2022-12-07T00:02:18;7.10;99.90
44271;DHT22;29963;44.594;11.368;2022-12-07T00:04:44;7.00;99.90
44271;DHT22;29963;44.594;11.368;2022-12-07T00:07:09;6.90;99.90
44271;DHT22;29963;44.594;11.368;2022-12-07T00:09:35;6.90;99.90
44271;DHT22;29963;44.594;11.368;2022-12-07T00:12:01;6.80;99.90
44271;DHT22;29963;44.594;11.368;2022-12-07T00:14:26;6.80;99.90
44271;DHT22;29963;44.594;11.368;2022-12-07T00:16:52;6.90;99.90
44271;DHT22;29963;44.594;11.368;2022-12-07T00:19:21;6.80;99.90
44271;DHT22;29963;44.594;11.368;2022-12-07T00:21:46;6.60;99.90
44271;DHT22;29963;44.594;11.368;2022-12-07T00:24:12;6.60;99.90
44271;DHT22;29963;44.594;11.368;2022-12-07T00:26:40;6.60;99.90
44271;DHT22;29963;44.594;11.368;2022-12-07T00:29:20;6.60;99.90
44271;DHT22;29963;44.594;11.368;2022-12-07T00:31:47;6.50;99.90
44271;DHT22;29963;44.594;11.368;2022-12-07T00:34:15;6.50;99.90
44271;DHT22;29963;44.594;11.368;2022-12-07T00:36:42;6.50;99.90
44271;DHT22;29963;44.594;11.368;2022-12-07T00:39:07;6.50;99.90
44271;DHT22;29963;44.594;11.368;2022-12-07T00:41:34;6.50;99.90
44271;DHT22;29963;44.594;11.368;2022-12-07T00:43:59;6.40;99.90
44271;DHT22;29963;44.594;11.368;2022-12-07T00:46:25;6.40;99.90
44271;DHT22;29963;44.594;11.368;2022-12-07T00:48:53;6.40;99.90
44271;DHT22;29963;44.594;11.368;2022-12-07T00:51:21;6.40;99.90
44271;DHT22;29963;44.594;11.368;2022-12-07T00:53:47;6.30;99.90
44271;DHT22;29963;44.594;11.368;2022-12-07T00:56:22;6.30;99.90
44271;DHT22;29963;44.594;11.368;2022-12-07T00:58:53;6.20;99.90
44271;DHT22;29963;44.594;11.368;2022-12-07T01:01:18;6.20;99.90
44271;DHT22;29963;44.594;11.368;2022-12-07T01:03:44;6.20;99.90
44271;DHT22;29963;44.594;11.368;2022-12-07T01:06:14;6.20;99.90
44271;DHT22;29963;44.594;11.368;2022-12-07T01:08:40;6.20;99.90
44271;DHT22;29963;44.594;11.368;2022-12-07T01:11:08;6.30;99.90
44271;DHT22;29963;44.594;11.368;2022-12-07T01:13:35;6.30;99.90
44271;DHT22;29963;44.594;11.368;2022-12-07T01:16:03;6.30;99.90
44271;DHT22;29963;44.594;11.368;2022-12-07T01:18:31;6.30;99.90
44271;DHT22;29963;44.594;11.368;2022-12-07T01:21:09;6.30;99.90
44271;DHT22;29963;44.594;11.368;2022-12-07T01:23:35;6.30;99.90
44271;DHT22;29963;44.594;11.368;2022-12-07T01:26:04;6.30;99.90
44271;DHT22;29963;44.594;11.368;2022-12-07T01:28:30;6.30;99.90
44271;DHT22;29963;44.594;11.368;2022-12-07T01:31:01;6.40;99.90
44271;DHT22;29963;44.594;11.368;2022-12-07T01:33:29;6.50;99.90
44271;DHT22;29963;44.594;11.368;2022-12-07T01:36:00;6.50;99.90
44271;DHT22;29963;44.594;11.368;2022-12-07T01:38:25;6.50;99.90
44271;DHT22;29963;44.594;11.368;2022-12-07T01:40:55;6.50;99.90
44271;DHT22;29963;44.594;11.368;2022-12-07T01:43:22;6.40;99.90
44271;DHT22;29963;44.594;11.368;2022-12-07T01:45:49;6.40;99.90
44271;DHT22;29963;44.594;11.368;2022-12-07T01:48:16;6.30;99.90
44271;DHT22;29963;44.594;11.368;2022-12-07T01:50:45;6.40;99.90
44271;DHT22;29963;44.594;11.368;2022-12-07T01:53:12;6.30;99.90
44271;DHT22;29963;44.594;11.368;2022-12-07T01:55:41;6.30;99.90
44271;DHT22;29963;44.594;11.368;2022-12-07T01:58:09;6.30;99.90
44271;DHT22;29963;44.594;11.368;2022-12-07T02:00:36;6.30;99.90
44271;DHT22;29963;44.594;11.368;2022-12-07T02:03:12;6.30;99.90
44271;DHT22;29963;44.594;11.368;2022-12-07T02:05:40;6.30;99.90
44271;DHT22;29963;44.594;11.368;2022-12-07T02:08:07;6.40;99.90
44271;DHT22;29963;44.594;11.368;2022-12-07T02:13:21;6.30;99.90
44271;DHT22;29963;44.594;11.368;2022-12-07T02:18:38;6.30;99.90
44271;DHT22;29963;44.594;11.368;2022-12-07T02:29:31;6.30;99.90
44271;DHT22;29963;44.594;11.368;2022-12-07T02:35:12;6.40;99.90
44271;DHT22;29963;44.594;11.368;2022-12-07T02:40:43;6.40;99.90
44271;DHT22;29963;44.594;11.368;2022-12-07T02:43:16;6.40;99.90
44271;DHT22;29963;44.594;11.368;2022-12-07T02:45:45;6.40;99.90
44271;DHT22;29963;44.594;11.368;2022-12-07T02:48:13;6.40;99.90
44271;DHT22;29963;44.594;11.368;2022-12-07T02:50:51;6.30;99.90
44271;DHT22;29963;44.594;11.368;2022-12-07T02:56:21;6.30;99.90
44271;DHT22;29963;44.594;11.368;2022-12-07T03:02:06;6.30;99.90
44271;DHT22;29963;44.594;11.368;2022-12-07T03:10:40;6.40;99.90
44271;DHT22;29963;44.594;11.368;2022-12-07T03:18:40;6.30;99.90
44271;DHT22;29963;44.594;11.368;2022-12-07T03:21:14;6.20;99.90
44271;DHT22;29963;44.594;11.368;2022-12-07T03:23:43;6.20;99.90
44271;DHT22;29963;44.594;11.368;2022-12-07T03:26:12;6.20;99.90
44271;DHT22;29963;44.594;11.368;2022-12-07T03:28:42;6.30;99.90
44271;DHT22;29963;44.594;11.368;2022-12-07T03:31:23;6.20;99.90
44271;DHT22;29963;44.594;11.368;2022-12-07T03:36:30;6.20;99.90
44271;DHT22;29963;44.594;11.368;2022-12-07T03:39:04;6.20;99.90
44271;DHT22;29963;44.594;11.368;2022-12-07T03:41:35;6.20;99.90
44271;DHT22;29963;44.594;11.368;2022-12-07T03:44:03;6.30;99.90
44271;DHT22;29963;44.594;11.368;2022-12-07T03:55:00;6.30;99.90
44271;DHT22;29963;44.594;11.368;2022-12-07T03:57:28;6.40;99.90
44271;DHT22;29963;44.594;11.368;2022-12-07T03:59:56;6.40;99.90
44271;DHT22;29963;44.594;11.368;2022-12-07T04:02:24;6.40;99.90
44271;DHT22;29963;44.594;11.368;2022-12-07T04:04:50;6.40;99.90
44271;DHT22;29963;44.594;11.368;2022-12-07T04:07:16;6.40;99.90
44271;DHT22;29963;44.594;11.368;2022-12-07T04:09:42;6.30;99.90
44271;DHT22;29963;44.594;11.368;2022-12-07T04:12:07;6.40;99.90
44271;DHT22;29963;44.594;11.368;2022-12-07T04:14:33;6.40;99.90
44271;DHT22;29963;44.594;11.368;2022-12-07T04:16:58;6.40;99.90
44271;DHT22;29963;44.594;11.368;2022-12-07T04:19:27;6.40;99.90
44271;DHT22;29963;44.594;11.368;2022-12-07T04:21:53;6.40;99.90
44271;DHT22;29963;44.594;11.368;2022-12-07T04:24:18;6.40;99.90
44271;DHT22;29963;44.594;11.368;2022-12-07T04:26:45;6.40;99.90
44271;DHT22;29963;44.594;11.368;2022-12-07T04:29:11;6.40;99.90
44271;DHT22;29963;44.594;11.368;2022-12-07T04:31:37;6.40;99.90
44271;DHT22;29963;44.594;11.368;2022-12-07T04:34:03;6.40;99.90
44271;DHT22;29963;44.594;11.368;2022-12-07T04:36:29;6.40;99.90
44271;DHT22;29963;44.594;11.368;2022-12-07T04:38:55;6.40;99.90
44271;DHT22;29963;44.594;11.368;2022-12-07T04:41:22;6.30;99.90
44271;DHT22;29963;44.594;11.368;2022-12-07T04:43:56;6.30;99.90
44271;DHT22;29963;44.594;11.368;2022-12-07T04:46:23;6.40;99.90
44271;DHT22;29963;44.594;11.368;2022-12-07T04:48:50;6.40;99.90
44271;DHT22;29963;44.594;11.368;2022-12-07T04:51:26;6.50;99.90
44271;DHT22;29963;44.594;11.368;2022-12-07T04:53:53;6.40;99.90
44271;DHT22;29963;44.594;11.368;2022-12-07T04:56:19;6.40;99.90
44271;DHT22;29963;44.594;11.368;2022-12-07T04:58:46;6.40;99.90
44271;DHT22;29963;44.594;11.368;2022-12-07T05:01:13;6.40;99.90
44271;DHT22;29963;44.594;11.368;2022-12-07T05:03:39;6.40;99.90
44271;DHT22;29963;44.594;11.368;2022-12-07T05:06:05;6.30;99.90
44271;DHT22;29963;44.594;11.368;2022-12-07T05:08:33;6.30;99.90
44271;DHT22;29963;44.594;11.368;2022-12-07T05:10:59;6.30;99.90
44271;DHT22;29963;44.594;11.368;2022-12-07T05:13:25;6.40;99.90
44271;DHT22;29963;44.594;11.368;2022-12-07T05:15:51;6.40;99.90
44271;DHT22;29963;44.594;11.368;2022-12-07T05:18:17;6.40;99.90
44271;DHT22;29963;44.594;11.368;2022-12-07T05:20:43;6.40;99.90
44271;DHT22;29963;44.594;11.368;2022-12-07T05:23:08;6.50;99.90
44271;DHT22;29963;44.594;11.368;2022-12-07T05:25:35;6.50;99.90
44271;DHT22;29963;44.594;11.368;2022-12-07T05:28:00;6.60;99.90
44271;DHT22;29963;44.594;11.368;2022-12-07T05:30:26;6.60;99.90
44271;DHT22;29963;44.594;11.368;2022-12-07T05:32:52;6.60;99.90
44271;DHT22;29963;44.594;11.368;2022-12-07T05:35:18;6.70;99.90
44271;DHT22;29963;44.594;11.368;2022-12-07T05:37:44;6.60;99.90
44271;DHT22;29963;44.594;11.368;2022-12-07T05:40:11;6.50;99.90
44271;DHT22;29963;44.594;11.368;2022-12-07T05:42:37;6.50;99.90
44271;DHT22;29963;44.594;11.368;2022-12-07T05:45:03;6.50;99.90
44271;DHT22;29963;44.594;11.368;2022-12-07T05:47:29;6.50;99.90
44271;DHT22;29963;44.594;11.368;2022-12-07T05:49:55;6.50;99.90
44271;DHT22;29963;44.594;11.368;2022-12-07T05:52:24;6.60;99.90
44271;DHT22;29963;44.594;11.368;2022-12-07T05:54:49;6.60;99.90
44271;DHT22;29963;44.594;11.368;2022-12-07T05:57:15;6.60;99.90
44271;DHT22;29963;44.594;11.368;2022-12-07T05:59:41;6.60;99.90
44271;DHT22;29963;44.594;11.368;2022-12-07T06:02:12;6.60;99.90
44271;DHT22;29963;44.594;11.368;2022-12-07T06:04:40;6.60;99.90
44271;DHT22;29963;44.594;11.368;2022-12-07T06:07:06;6.60;99.90
44271;DHT22;29963;44.594;11.368;2022-12-07T06:09:33;6.60;99.90
44271;DHT22;29963;44.594;11.368;2022-12-07T06:11:59;6.50;99.90
44271;DHT22;29963;44.594;11.368;2022-12-07T06:14:43;6.50;99.90
44271;DHT22;29963;44.594;11.368;2022-12-07T06:17:10;6.50;99.90
44271;DHT22;29963;44.594;11.368;2022-12-07T06:19:36;6.50;99.90
44271;DHT22;29963;44.594;11.368;2022-12-07T06:22:02;6.30;99.90
44271;DHT22;29963;44.594;11.368;2022-12-07T06:24:30;6.30;99.90
44271;DHT22;29963;44.594;11.368;2022-12-07T06:26:56;6.20;99.90
44271;DHT22;29963;44.594;11.368;2022-12-07T06:29:22;6.20;99.90
44271;DHT22;29963;44.594;11.368;2022-12-07T06:31:47;6.30;99.90
44271;DHT22;29963;44.594;11.368;2022-12-07T06:34:18;6.30;99.90
44271;DHT22;29963;44.594;11.368;2022-12-07T06:36:45;6.30;99.90
44271;DHT22;29963;44.594;11.368;2022-12-07T06:39:11;6.40;99.90
44271;DHT22;29963;44.594;11.368;2022-12-07T06:41:37;6.40;99.90
44271;DHT22;29963;44.594;11.368;2022-12-07T06:44:05;6.30;99.90
44271;DHT22;29963;44.594;11.368;2022-12-07T06:46:31;6.30;99.90
44271;DHT22;29963;44.594;11.368;2022-12-07T06:48:56;6.30;99.90
44271;DHT22;29963;44.594;11.368;2022-12-07T06:51:22;6.40;99.90
44271;DHT22;29963;44.594;11.368;2022-12-07T06:53:48;6.40;99.90
44271;DHT22;29963;44.594;11.368;2022-12-07T06:56:14;6.40;99.90
44271;DHT22;29963;44.594;11.368;2022-12-07T06:58:40;6.40;99.90
44271;DHT22;29963;44.594;11.368;2022-12-07T07:01:11;6.40;99.90
44271;DHT22;29963;44.594;11.368;2022-12-07T07:03:37;6.40;99.90
44271;DHT22;29963;44.594;11.368;2022-12-07T07:06:03;6.40;99.90
44271;DHT22;29963;44.594;11.368;2022-12-07T07:08:28;6.40;99.90
44271;DHT22;29963;44.594;11.368;2022-12-07T07:10:54;6.50;99.90
44271;DHT22;29963;44.594;11.368;2022-12-07T07:13:20;6.50;99.90
44271;DHT22;29963;44.594;11.368;2022-12-07T07:15:45;6.40;99.90
44271;DHT22;29963;44.594;11.368;2022-12-07T07:18:11;6.50;99.90
44271;DHT22;29963;44.594;11.368;2022-12-07T07:20:37;6.50;99.90
44271;DHT22;29963;44.594;11.368;2022-12-07T07:23:03;6.50;99.90
44271;DHT22;29963;44.594;11.368;2022-12-07T07:25:28;6.50;99.90
44271;DHT22;29963;44.594;11.368;2022-12-07T07:27:54;6.50;99.90
44271;DHT22;29963;44.594;11.368;2022-12-07T07:30:20;6.60;99.90
44271;DHT22;29963;44.594;11.368;2022-12-07T07:32:46;6.60;99.90
44271;DHT22;29963;44.594;11.368;2022-12-07T07:35:11;6.70;99.90
44271;DHT22;29963;44.594;11.368;2022-12-07T07:37:37;6.70;99.90
44271;DHT22;29963;44.594;11.368;2022-12-07T07:40:03;6.70;99.90
44271;DHT22;29963;44.594;11.368;2022-12-07T07:42:29;6.70;99.90
44271;DHT22;29963;44.594;11.368;2022-12-07T07:44:54;6.70;99.90
44271;DHT22;29963;44.594;11.368;2022-12-07T07:47:20;6.70;99.90
44271;DHT22;29963;44.594;11.368;2022-12-07T07:49:46;6.80;99.90
44271;DHT22;29963;44.594;11.368;2022-12-07T07:52:11;6.80;99.90
44271;DHT22;29963;44.594;11.368;2022-12-07T07:54:37;6.70;99.90
44271;DHT22;29963;44.594;11.368;2022-12-07T07:57:02;6.70;99.90
44271;DHT22;29963;44.594;11.368;2022-12-07T07:59:28;6.70;99.90
44271;DHT22;29963;44.594;11.368;2022-12-07T08:01:54;6.70;99.90
44271;DHT22;29963;44.594;11.368;2022-12-07T08:04:20;6.70;99.90
44271;DHT22;29963;44.594;11.368;2022-12-07T08:06:45;6.70;99.90
44271;DHT22;29963;44.594;11.368;2022-12-07T08:09:12;6.70;99.90
44271;DHT22;29963;44.594;11.368;2022-12-07T08:11:37;6.70;99.90
44271;DHT22;29963;44.594;11.368;2022-12-07T08:14:03;6.70;99.90
44271;DHT22;29963;44.594;11.368;2022-12-07T08:16:29;6.70;99.90
44271;DHT22;29963;44.594;11.368;2022-12-07T08:18:54;6.70;99.90
44271;DHT22;29963;44.594;11.368;2022-12-07T08:21:20;6.70;99.90
44271;DHT22;29963;44.594;11.368;2022-12-07T08:23:46;6.70;99.90
44271;DHT22;29963;44.594;11.368;2022-12-07T08:26:14;6.70;99.90
44271;DHT22;29963;44.594;11.368;2022-12-07T08:28:40;6.70;99.90
44271;DHT22;29963;44.594;11.368;2022-12-07T08:31:10;6.70;99.90
44271;DHT22;29963;44.594;11.368;2022-12-07T08:33:36;6.70;99.90
44271;DHT22;29963;44.594;11.368;2022-12-07T08:36:04;6.70;99.90
44271;DHT22;29963;44.594;11.368;2022-12-07T08:38:30;6.80;99.90
44271;DHT22;29963;44.594;11.368;2022-12-07T08:40:57;6.80;99.90
44271;DHT22;29963;44.594;11.368;2022-12-07T08:43:23;6.70;99.90
44271;DHT22;29963;44.594;11.368;2022-12-07T08:48:26;6.80;99.90
44271;DHT22;29963;44.594;11.368;2022-12-07T08:50:52;6.90;99.90
44271;DHT22;29963;44.594;11.368;2022-12-07T08:53:18;6.90;99.90
44271;DHT22;29963;44.594;11.368;2022-12-07T08:55:45;6.90;99.90
44271;DHT22;29963;44.594;11.368;2022-12-07T08:58:11;6.90;99.90
44271;DHT22;29963;44.594;11.368;2022-12-07T09:00:37;6.90;99.90
44271;DHT22;29963;44.594;11.368;2022-12-07T09:03:05;6.90;99.90
44271;DHT22;29963;44.594;11.368;2022-12-07T09:05:32;6.90;99.90
44271;DHT22;29963;44.594;11.368;2022-12-07T09:08:00;6.90;99.90
44271;DHT22;29963;44.594;11.368;2022-12-07T09:10:27;6.90;99.90
44271;DHT22;29963;44.594;11.368;2022-12-07T09:12:53;7.00;99.90
44271;DHT22;29963;44.594;11.368;2022-12-07T09:15:18;7.10;99.90
44271;DHT22;29963;44.594;11.368;2022-12-07T09:17:44;7.10;99.90
44271;DHT22;29963;44.594;11.368;2022-12-07T09:20:10;7.10;99.90
44271;DHT22;29963;44.594;11.368;2022-12-07T09:22:36;7.10;99.90
44271;DHT22;29963;44.594;11.368;2022-12-07T09:25:02;7.20;99.90
44271;DHT22;29963;44.594;11.368;2022-12-07T09:27:28;7.20;99.90
44271;DHT22;29963;44.594;11.368;2022-12-07T09:29:54;7.10;99.90
44271;DHT22;29963;44.594;11.368;2022-12-07T09:32:19;7.10;99.90
44271;DHT22;29963;44.594;11.368;2022-12-07T09:34:45;7.20;99.90
44271;DHT22;29963;44.594;11.368;2022-12-07T09:37:11;7.20;99.90
44271;DHT22;29963;44.594;11.368;2022-12-07T09:39:40;7.20;99.90
44271;DHT22;29963;44.594;11.368;2022-12-07T09:42:07;7.10;99.90
44271;DHT22;29963;44.594;11.368;2022-12-07T09:44:33;7.10;99.90
44271;DHT22;29963;44.594;11.368;2022-12-07T09:47:00;7.10;99.90
44271;DHT22;29963;44.594;11.368;2022-12-07T09:49:29;7.20;99.90
44271;DHT22;29963;44.594;11.368;2022-12-07T09:54:27;7.20;99.90
44271;DHT22;29963;44.594;11.368;2022-12-07T09:56:54;7.20;99.90
44271;DHT22;29963;44.594;11.368;2022-12-07T09:59:19;7.20;99.90
44271;DHT22;29963;44.594;11.368;2022-12-07T10:01:49;7.20;99.90
44271;DHT22;29963;44.594;11.368;2022-12-07T10:04:24;7.20;99.90
44271;DHT22;29963;44.594;11.368;2022-12-07T10:06:49;7.20;99.90
44271;DHT22;29963;44.594;11.368;2022-12-07T10:09:18;7.30;99.90
44271;DHT22;29963;44.594;11.368;2022-12-07T10:14:31;7.40;99.90
44271;DHT22;29963;44.594;11.368;2022-12-07T10:16:57;7.40;99.90
44271;DHT22;29963;44.594;11.368;2022-12-07T10:19:29;7.50;99.90
44271;DHT22;29963;44.594;11.368;2022-12-07T10:22:14;7.50;99.90
44271;DHT22;29963;44.594;11.368;2022-12-07T10:24:42;7.60;99.90
44271;DHT22;29963;44.594;11.368;2022-12-07T10:27:37;7.60;99.90
44271;DHT22;29963;44.594;11.368;2022-12-07T10:30:07;7.60;99.90
44271;DHT22;29963;44.594;11.368;2022-12-07T10:32:36;7.70;99.90
44271;DHT22;29963;44.594;11.368;2022-12-07T10:35:29;7.70;99.90
44271;DHT22;29963;44.594;11.368;2022-12-07T10:37:57;7.70;99.90
44271;DHT22;29963;44.594;11.368;2022-12-07T10:40:36;7.70;99.90
44271;DHT22;29963;44.594;11.368;2022-12-07T10:45:30;7.80;99.90
44271;DHT22;29963;44.594;11.368;2022-12-07T10:53:23;7.70;99.90
44271;DHT22;29963;44.594;11.368;2022-12-07T10:59:07;7.60;99.90
44271;DHT22;29963;44.594;11.368;2022-12-07T11:02:00;7.60;99.90
44271;DHT22;29963;44.594;11.368;2022-12-07T11:10:18;7.80;99.90
44271;DHT22;29963;44.594;11.368;2022-12-07T11:13:13;7.80;99.90
44271;DHT22;29963;44.594;11.368;2022-12-07T11:21:18;7.90;99.90
44271;DHT22;29963;44.594;11.368;2022-12-07T11:23:56;7.90;99.90
44271;DHT22;29963;44.594;11.368;2022-12-07T11:37:34;8.00;99.90
44271;DHT22;29963;44.594;11.368;2022-12-07T11:42:41;8.00;99.90
44271;DHT22;29963;44.594;11.368;2022-12-07T11:45:16;8.10;99.90
44271;DHT22;29963;44.594;11.368;2022-12-07T11:52:55;8.30;99.90
44271;DHT22;29963;44.594;11.368;2022-12-07T11:55:39;8.30;99.90
44271;DHT22;29963;44.594;11.368;2022-12-07T11:58:19;8.20;99.90
44271;DHT22;29963;44.594;11.368;2022-12-07T12:00:49;8.20;99.90
44271;DHT22;29963;44.594;11.368;2022-12-07T12:03:28;8.20;99.90
44271;DHT22;29963;44.594;11.368;2022-12-07T12:05:56;8.20;99.90
44271;DHT22;29963;44.594;11.368;2022-12-07T12:08:31;8.30;99.90
44271;DHT22;29963;44.594;11.368;2022-12-07T12:15:20;8.50;99.90
44271;DHT22;29963;44.594;11.368;2022-12-07T12:22:44;8.50;99.90
44271;DHT22;29963;44.594;11.368;2022-12-07T12:25:20;8.50;99.90
44271;DHT22;29963;44.594;11.368;2022-12-07T12:27:48;8.60;99.90
44271;DHT22;29963;44.594;11.368;2022-12-07T12:30:29;8.60;99.90
44271;DHT22;29963;44.594;11.368;2022-12-07T12:33:02;8.70;99.90
44271;DHT22;29963;44.594;11.368;2022-12-07T12:35:35;8.70;99.90
44271;DHT22;29963;44.594;11.368;2022-12-07T12:38:29;8.70;99.90
44271;DHT22;29963;44.594;11.368;2022-12-07T12:40:56;8.80;99.90
44271;DHT22;29963;44.594;11.368;2022-12-07T12:43:49;8.90;99.90
44271;DHT22;29963;44.594;11.368;2022-12-07T12:52:00;9.30;99.90
44271;DHT22;29963;44.594;11.368;2022-12-07T12:54:30;9.40;99.90
44271;DHT22;29963;44.594;11.368;2022-12-07T12:57:07;9.30;99.90
44271;DHT22;29963;44.594;11.368;2022-12-07T13:02:27;9.50;99.90
44271;DHT22;29963;44.594;11.368;2022-12-07T13:08:11;9.50;99.90
44271;DHT22;29963;44.594;11.368;2022-12-07T13:10:42;9.50;99.90
44271;DHT22;29963;44.594;11.368;2022-12-07T13:18:22;9.50;99.90
44271;DHT22;29963;44.594;11.368;2022-12-07T13:26:20;9.40;99.90
44271;DHT22;29963;44.594;11.368;2022-12-07T13:28:50;9.30;99.90
44271;DHT22;29963;44.594;11.368;2022-12-07T13:34:01;9.30;99.90
44271;DHT22;29963;44.594;11.368;2022-12-07T13:36:33;9.30;99.90
44271;DHT22;29963;44.594;11.368;2022-12-07T13:39:22;9.30;99.90
44271;DHT22;29963;44.594;11.368;2022-12-07T13:41:56;9.30;99.90
44271;DHT22;29963;44.594;11.368;2022-12-07T13:44:24;9.20;99.90
44271;DHT22;29963;44.594;11.368;2022-12-07T13:47:06;9.20;99.90
44271;DHT22;29963;44.594;11.368;2022-12-07T13:49:46;9.30;99.90
44271;DHT22;29963;44.594;11.368;2022-12-07T13:52:23;9.20;99.90
44271;DHT22;29963;44.594;11.368;2022-12-07T13:54:57;9.10;99.90
44271;DHT22;29963;44.594;11.368;2022-12-07T13:57:24;9.10;99.90
44271;DHT22;29963;44.594;11.368;2022-12-07T13:59:51;9.00;99.90
44271;DHT22;29963;44.594;11.368;2022-12-07T14:04:45;9.20;99.90
44271;DHT22;29963;44.594;11.368;2022-12-07T14:07:53;9.20;99.90
44271;DHT22;29963;44.594;11.368;2022-12-07T14:13:33;9.20;99.90
44271;DHT22;29963;44.594;11.368;2022-12-07T14:16:05;9.20;99.90
44271;DHT22;29963;44.594;11.368;2022-12-07T14:18:38;9.30;99.90
44271;DHT22;29963;44.594;11.368;2022-12-07T14:23:37;9.60;99.90
44271;DHT22;29963;44.594;11.368;2022-12-07T14:26:16;9.60;99.90
44271;DHT22;29963;44.594;11.368;2022-12-07T14:28:44;9.90;99.90
44271;DHT22;29963;44.594;11.368;2022-12-07T14:31:22;10.10;99.90
44271;DHT22;29963;44.594;11.368;2022-12-07T14:33:49;10.10;99.90
44271;DHT22;29963;44.594;11.368;2022-12-07T14:36:15;10.10;99.90
44271;DHT22;29963;44.594;11.368;2022-12-07T14:38:41;10.20;99.90
44271;DHT22;29963;44.594;11.368;2022-12-07T14:41:14;10.10;99.90
44271;DHT22;29963;44.594;11.368;2022-12-07T14:43:59;10.00;99.90
44271;DHT22;29963;44.594;11.368;2022-12-07T14:46:25;9.80;99.90
44271;DHT22;29963;44.594;11.368;2022-12-07T14:48:51;9.70;99.90
44271;DHT22;29963;44.594;11.368;2022-12-07T14:51:19;9.70;99.90
44271;DHT22;29963;44.594;11.368;2022-12-07T14:53:48;9.50;99.90
44271;DHT22;29963;44.594;11.368;2022-12-07T14:56:15;9.40;99.90
44271;DHT22;29963;44.594;11.368;2022-12-07T14:58:41;9.30;99.90
44271;DHT22;29963;44.594;11.368;2022-12-07T15:01:06;9.40;99.90
44271;DHT22;29963;44.594;11.368;2022-12-07T15:03:32;9.30;99.90
44271;DHT22;29963;44.594;11.368;2022-12-07T15:06:00;9.30;99.90
44271;DHT22;29963;44.594;11.368;2022-12-07T15:08:26;9.20;99.90
44271;DHT22;29963;44.594;11.368;2022-12-07T15:10:52;9.20;99.90
44271;DHT22;29963;44.594;11.368;2022-12-07T15:13:17;9.10;99.90
44271;DHT22;29963;44.594;11.368;2022-12-07T15:16:02;9.10;99.90
44271;DHT22;29963;44.594;11.368;2022-12-07T15:18:27;9.00;99.90
44271;DHT22;29963;44.594;11.368;2022-12-07T15:20:53;8.90;99.90
44271;DHT22;29963;44.594;11.368;2022-12-07T15:23:19;8.80;99.90
44271;DHT22;29963;44.594;11.368;2022-12-07T15:25:46;8.60;99.90
44271;DHT22;29963;44.594;11.368;2022-12-07T15:28:13;8.50;99.90
44271;DHT22;29963;44.594;11.368;2022-12-07T15:30:40;8.40;99.90
44271;DHT22;29963;44.594;11.368;2022-12-07T15:33:05;8.30;99.90
44271;DHT22;29963;44.594;11.368;2022-12-07T15:35:31;8.20;99.90
44271;DHT22;29963;44.594;11.368;2022-12-07T15:37:56;8.20;99.90
44271;DHT22;29963;44.594;11.368;2022-12-07T15:40:22;8.10;99.90
44271;DHT22;29963;44.594;11.368;2022-12-07T15:42:48;8.00;99.90
44271;DHT22;29963;44.594;11.368;2022-12-07T15:45:13;7.90;99.90
44271;DHT22;29963;44.594;11.368;2022-12-07T15:47:41;7.90;99.90
44271;DHT22;29963;44.594;11.368;2022-12-07T15:50:10;7.80;99.90
44271;DHT22;29963;44.594;11.368;2022-12-07T15:52:36;7.80;99.90
44271;DHT22;29963;44.594;11.368;2022-12-07T15:55:03;7.70;99.90
44271;DHT22;29963;44.594;11.368;2022-12-07T15:57:30;7.70;99.90
44271;DHT22;29963;44.594;11.368;2022-12-07T15:59:56;7.60;99.90
44271;DHT22;29963;44.594;11.368;2022-12-07T16:02:21;7.60;99.90
44271;DHT22;29963;44.594;11.368;2022-12-07T16:04:48;7.60;99.90
44271;DHT22;29963;44.594;11.368;2022-12-07T16:07:13;7.60;99.90
44271;DHT22;29963;44.594;11.368;2022-12-07T16:09:41;7.60;99.90
44271;DHT22;29963;44.594;11.368;2022-12-07T16:12:07;7.50;99.90
44271;DHT22;29963;44.594;11.368;2022-12-07T16:14:34;7.50;99.90
44271;DHT22;29963;44.594;11.368;2022-12-07T16:16:59;7.60;99.90
44271;DHT22;29963;44.594;11.368;2022-12-07T16:19:25;7.60;99.90
44271;DHT22;29963;44.594;11.368;2022-12-07T16:21:51;7.60;99.90
44271;DHT22;29963;44.594;11.368;2022-12-07T16:24:17;7.60;99.90
44271;DHT22;29963;44.594;11.368;2022-12-07T16:26:45;7.60;99.90
44271;DHT22;29963;44.594;11.368;2022-12-07T16:29:12;7.60;99.90
44271;DHT22;29963;44.594;11.368;2022-12-07T16:31:38;7.50;99.90
44271;DHT22;29963;44.594;11.368;2022-12-07T16:34:06;7.50;99.90
44271;DHT22;29963;44.594;11.368;2022-12-07T16:36:32;7.60;99.90
44271;DHT22;29963;44.594;11.368;2022-12-07T16:38:59;7.50;99.90
44271;DHT22;29963;44.594;11.368;2022-12-07T16:41:25;7.50;99.90
44271;DHT22;29963;44.594;11.368;2022-12-07T16:43:51;7.50;99.90
44271;DHT22;29963;44.594;11.368;2022-12-07T16:46:17;7.40;99.90
44271;DHT22;29963;44.594;11.368;2022-12-07T16:48:43;7.30;99.90
44271;DHT22;29963;44.594;11.368;2022-12-07T16:51:10;7.30;99.90
44271;DHT22;29963;44.594;11.368;2022-12-07T16:53:37;7.20;99.90
44271;DHT22;29963;44.594;11.368;2022-12-07T16:56:13;7.20;99.90
44271;DHT22;29963;44.594;11.368;2022-12-07T16:58:43;7.20;99.90
44271;DHT22;29963;44.594;11.368;2022-12-07T17:01:22;7.20;99.90
44271;DHT22;29963;44.594;11.368;2022-12-07T17:03:48;7.20;99.90
44271;DHT22;29963;44.594;11.368;2022-12-07T17:06:22;7.20;99.90
44271;DHT22;29963;44.594;11.368;2022-12-07T17:08:50;7.10;99.90
44271;DHT22;29963;44.594;11.368;2022-12-07T17:11:20;7.00;99.90
44271;DHT22;29963;44.594;11.368;2022-12-07T17:13:46;7.10;99.90
44271;DHT22;29963;44.594;11.368;2022-12-07T17:16:30;6.90;99.90
44271;DHT22;29963;44.594;11.368;2022-12-07T17:18:56;6.80;99.90
44271;DHT22;29963;44.594;11.368;2022-12-07T17:21:22;6.80;99.90
44271;DHT22;29963;44.594;11.368;2022-12-07T17:23:48;6.70;99.90
44271;DHT22;29963;44.594;11.368;2022-12-07T17:26:16;6.70;99.90
44271;DHT22;29963;44.594;11.368;2022-12-07T17:28:42;6.70;99.90
44271;DHT22;29963;44.594;11.368;2022-12-07T17:31:15;6.70;99.90
44271;DHT22;29963;44.594;11.368;2022-12-07T17:33:40;6.70;99.90
44271;DHT22;29963;44.594;11.368;2022-12-07T17:38:39;6.70;99.90
44271;DHT22;29963;44.594;11.368;2022-12-07T17:41:12;6.60;99.90
44271;DHT22;29963;44.594;11.368;2022-12-07T17:43:58;6.50;99.90
44271;DHT22;29963;44.594;11.368;2022-12-07T17:46:24;6.50;99.90
44271;DHT22;29963;44.594;11.368;2022-12-07T17:48:50;6.40;99.90
44271;DHT22;29963;44.594;11.368;2022-12-07T17:51:15;6.30;99.90
44271;DHT22;29963;44.594;11.368;2022-12-07T17:53:59;6.30;99.90
44271;DHT22;29963;44.594;11.368;2022-12-07T17:56:25;6.30;99.90
44271;DHT22;29963;44.594;11.368;2022-12-07T17:58:50;6.30;99.90
44271;DHT22;29963;44.594;11.368;2022-12-07T18:01:16;6.30;99.90
44271;DHT22;29963;44.594;11.368;2022-12-07T18:03:42;6.30;99.90